createdAt,value
2022-09-06T00:02:50.319Z,15.90
2022-09-06T00:07:54.962Z,15.70
2022-09-06T00:13:02.150Z,15.80
2022-09-06T00:18:07.042Z,15.90
2022-09-06T00:23:11.489Z,15.80
2022-09-06T00:28:16.458Z,15.60
2022-09-06T00:33:19.575Z,15.50
2022-09-06T00:38:23.929Z,15.40
2022-09-06T00:43:27.375Z,15.40
2022-09-06T00:48:30.929Z,15.40
2022-09-06T00:53:35.384Z,15.40
2022-09-06T00:58:38.741Z,15.30
2022-09-06T01:03:42.419Z,15.20
2022-09-06T01:09:02.203Z,15.00
2022-09-06T01:14:16.503Z,14.90
2022-09-06T01:19:43.554Z,14.90
2022-09-06T01:25:10.267Z,14.90
2022-09-06T01:30:17.537Z,14.80
2022-09-06T01:35:27.385Z,14.70
2022-09-06T01:40:30.634Z,14.70
2022-09-06T01:45:45.742Z,14.60
2022-09-06T01:51:04.310Z,14.70
2022-09-06T01:56:16.325Z,14.70
2022-09-06T02:01:28.212Z,14.60
2022-09-06T02:06:37.294Z,14.70
2022-09-06T02:11:44.280Z,14.60
2022-09-06T02:16:50.584Z,14.70
2022-09-06T02:21:57.243Z,14.80
2022-09-06T02:27:00.405Z,14.80
2022-09-06T02:32:11.159Z,15.00
2022-09-06T02:37:15.693Z,15.00
2022-09-06T02:42:18.990Z,15.00
2022-09-06T02:47:23.421Z,14.80
2022-09-06T02:52:27.426Z,14.60
2022-09-06T02:57:30.483Z,14.70
2022-09-06T03:02:34.860Z,14.60
2022-09-06T03:07:37.900Z,14.70
2022-09-06T03:12:42.597Z,14.60
2022-09-06T03:17:47.269Z,14.60
2022-09-06T03:22:50.473Z,14.50
2022-09-06T03:27:53.910Z,14.50
2022-09-06T03:33:02.572Z,14.40
2022-09-06T03:38:06.315Z,14.20
2022-09-06T03:43:09.329Z,14.20
2022-09-06T03:48:14.084Z,14.10
2022-09-06T03:53:18.324Z,14.20
2022-09-06T03:58:22.670Z,14.10
2022-09-06T04:03:27.249Z,14.10
2022-09-06T04:08:30.917Z,14.10
2022-09-06T04:13:35.129Z,14.10
2022-09-06T04:18:39.775Z,14.00
2022-09-06T04:23:42.923Z,14.10
2022-09-06T04:28:46.847Z,14.10
2022-09-06T04:33:51.281Z,14.10
2022-09-06T04:38:54.871Z,14.10
2022-09-06T04:43:58.206Z,14.10
2022-09-06T04:49:02.604Z,14.10
2022-09-06T04:54:05.819Z,14.20
2022-09-06T04:59:09.098Z,14.20
2022-09-06T05:04:13.654Z,14.20
2022-09-06T05:09:16.825Z,14.30
2022-09-06T05:14:19.974Z,14.40
2022-09-06T05:19:24.500Z,14.30
2022-09-06T05:24:27.551Z,14.40
2022-09-06T05:29:30.886Z,14.50
2022-09-06T05:34:35.612Z,14.70
2022-09-06T05:39:38.737Z,14.90
2022-09-06T05:44:41.898Z,15.00
2022-09-06T05:49:46.532Z,15.20
2022-09-06T05:54:49.833Z,15.30
2022-09-06T05:59:55.704Z,15.80
2022-09-06T06:05:00.330Z,16.10
2022-09-06T06:10:17.497Z,16.20
2022-09-06T06:15:23.353Z,16.50
2022-09-06T06:20:29.192Z,17.90
2022-09-06T06:25:32.369Z,19.20
2022-09-06T06:30:36.013Z,19.70
2022-09-06T06:35:40.627Z,19.70
2022-09-06T06:40:45.598Z,20.10
2022-09-06T06:45:50.071Z,19.50
2022-09-06T06:50:55.409Z,20.40
2022-09-06T06:55:59.480Z,21.30
2022-09-06T07:01:03.081Z,20.30
2022-09-06T07:11:15.014Z,20.70
2022-09-06T07:16:20.372Z,20.50
2022-09-06T07:26:40.625Z,19.80
2022-09-06T07:37:09.624Z,20.00
2022-09-06T07:42:13.129Z,21.20
2022-09-06T07:58:05.783Z,22.60
2022-09-06T08:03:09.064Z,22.20
2022-09-06T08:13:37.464Z,21.30
2022-09-06T08:18:40.740Z,21.10
2022-09-06T08:23:48.392Z,20.50
2022-09-06T08:28:54.090Z,21.20
2022-09-06T08:33:58.446Z,20.90
2022-09-06T08:39:05.393Z,21.00
2022-09-06T08:49:42.011Z,21.70
2022-09-06T08:54:53.913Z,21.10
2022-09-06T09:00:01.958Z,22.00
2022-09-06T09:05:11.719Z,22.40
2022-09-06T09:10:21.603Z,22.20
2022-09-06T09:15:25.860Z,22.00
2022-09-06T09:20:29.367Z,21.70
2022-09-06T09:25:36.013Z,20.90
2022-09-06T09:30:48.706Z,20.90
2022-09-06T09:35:53.387Z,20.90
2022-09-06T09:41:01.575Z,20.90
2022-09-06T09:46:13.949Z,20.90
2022-09-06T09:51:26.139Z,20.70
2022-09-06T09:56:37.631Z,21.20
2022-09-06T10:01:40.771Z,20.90
2022-09-06T10:12:16.981Z,21.10
2022-09-06T10:17:28.708Z,21.10
2022-09-06T10:22:35.275Z,21.60
2022-09-06T10:28:10.541Z,22.00
2022-09-06T10:33:26.813Z,21.60
2022-09-06T10:38:45.361Z,21.80
2022-09-06T10:44:00.113Z,21.70
2022-09-06T10:49:03.667Z,21.40
2022-09-06T10:54:10.546Z,21.40
2022-09-06T10:59:38.797Z,21.30
2022-09-06T11:10:16.550Z,21.40
2022-09-06T11:15:24.544Z,21.70
2022-09-06T11:20:33.573Z,21.30
2022-09-06T11:26:14.075Z,21.60
2022-09-06T11:36:49.035Z,21.60
2022-09-06T11:41:52.391Z,21.60
2022-09-06T11:47:03.986Z,21.60
2022-09-06T11:53:03.282Z,21.50
2022-09-06T11:58:12.244Z,21.70
2022-09-06T12:04:05.769Z,21.90
2022-09-06T12:09:32.602Z,21.90
2022-09-06T12:14:42.602Z,22.00
2022-09-06T12:19:48.657Z,22.10
2022-09-06T12:24:56.345Z,22.30
2022-09-06T12:30:01.991Z,22.40
2022-09-06T12:40:45.387Z,22.70
2022-09-06T12:45:51.495Z,22.70
2022-09-06T12:51:02.057Z,22.90
2022-09-06T12:56:09.194Z,23.10
2022-09-06T13:01:16.334Z,22.80
2022-09-06T13:06:27.033Z,22.90
2022-09-06T13:11:34.650Z,22.80
2022-09-06T13:16:43.863Z,23.20
2022-09-06T13:21:47.603Z,23.90
2022-09-06T13:26:52.587Z,23.60
2022-09-06T13:31:57.509Z,23.90
2022-09-06T13:37:03.908Z,23.90
2022-09-06T13:42:10.653Z,24.20
2022-09-06T13:47:13.809Z,24.10
2022-09-06T13:52:18.464Z,23.80
2022-09-06T13:57:24.661Z,23.60
2022-09-06T14:02:28.929Z,23.50
2022-09-06T14:07:32.447Z,23.60
2022-09-06T14:12:37.910Z,23.90
2022-09-06T14:17:41.241Z,24.10
2022-09-06T14:22:44.548Z,24.30
2022-09-06T14:27:49.236Z,25.10
2022-09-06T14:32:52.599Z,25.50
2022-09-06T14:37:55.766Z,25.20
2022-09-06T14:43:00.247Z,25.70
2022-09-06T14:48:04.258Z,25.90
2022-09-06T14:53:24.037Z,25.90
2022-09-06T14:58:32.740Z,24.30
2022-09-06T15:03:36.011Z,24.00
2022-09-06T15:08:39.483Z,24.30
2022-09-06T15:13:44.191Z,24.50
2022-09-06T15:18:47.484Z,23.70
2022-09-06T15:23:51.800Z,23.30
2022-09-06T15:28:56.615Z,23.30
2022-09-06T15:34:01.502Z,23.20
2022-09-06T15:39:04.975Z,23.30
2022-09-06T15:44:11.881Z,22.90
2022-09-06T15:49:17.611Z,22.60
2022-09-06T15:54:44.629Z,22.60
2022-09-06T15:59:49.726Z,22.70
2022-09-06T16:04:52.972Z,22.40
2022-09-06T16:09:56.173Z,22.20
2022-09-06T16:15:01.281Z,22.10
2022-09-06T16:20:05.312Z,22.00
2022-09-06T16:25:08.882Z,22.00
2022-09-06T16:30:13.901Z,21.90
2022-09-06T16:35:17.802Z,21.70
2022-09-06T16:40:21.041Z,21.60
2022-09-06T16:45:25.517Z,21.50
2022-09-06T16:50:29.802Z,21.50
2022-09-06T16:55:36.772Z,21.50
2022-09-06T17:00:41.737Z,21.30
2022-09-06T17:05:49.695Z,21.20
2022-09-06T17:10:53.769Z,21.10
2022-09-06T17:16:21.408Z,21.00
2022-09-06T17:21:25.903Z,21.00
2022-09-06T17:26:29.952Z,21.00
2022-09-06T17:31:34.613Z,20.90
2022-09-06T17:36:38.249Z,20.70
2022-09-06T17:41:45.611Z,20.60
2022-09-06T17:47:11.848Z,20.70
2022-09-06T17:52:13.989Z,20.50
2022-09-06T17:57:17.532Z,20.40
2022-09-06T18:02:22.156Z,20.40
2022-09-06T18:07:25.397Z,20.40
2022-09-06T18:12:30.374Z,20.40
2022-09-06T18:17:35.090Z,20.30
2022-09-06T18:22:39.737Z,20.10
2022-09-06T18:27:43.146Z,20.20
2022-09-06T18:32:47.683Z,20.10
2022-09-06T18:37:51.078Z,20.00
2022-09-06T18:42:54.373Z,20.00
2022-09-06T18:47:59.639Z,20.00
2022-09-06T18:53:03.096Z,19.90
2022-09-06T18:58:06.377Z,19.80
2022-09-06T19:03:10.910Z,19.80
2022-09-06T19:08:14.249Z,19.70
2022-09-06T19:13:18.068Z,19.50
2022-09-06T19:18:23.494Z,19.70
2022-09-06T19:23:27.436Z,19.70
2022-09-06T19:28:31.590Z,19.60
2022-09-06T19:33:36.543Z,19.50
2022-09-06T19:44:09.017Z,19.50
2022-09-06T19:49:14.724Z,19.50
2022-09-06T19:54:18.999Z,19.40
2022-09-06T19:59:22.313Z,19.30
2022-09-06T20:04:28.194Z,19.30
2022-09-06T20:09:31.774Z,19.30
2022-09-06T20:14:34.894Z,19.30
2022-09-06T20:19:39.456Z,19.20
2022-09-06T20:24:42.744Z,19.20
2022-09-06T20:29:46.541Z,19.10
2022-09-06T20:34:51.027Z,19.20
2022-09-06T20:39:55.613Z,19.10
2022-09-06T20:44:58.996Z,19.10
2022-09-06T20:50:04.835Z,19.10
2022-09-06T20:55:09.179Z,19.10
2022-09-06T21:00:14.471Z,19.10
2022-09-06T21:05:19.806Z,18.90
2022-09-06T21:10:23.165Z,18.90
2022-09-06T21:15:26.474Z,18.80
2022-09-06T21:20:31.750Z,18.80
2022-09-06T21:25:35.197Z,18.90
2022-09-06T21:30:38.899Z,18.70
2022-09-06T21:35:43.614Z,18.80
2022-09-06T21:40:47.095Z,18.60
2022-09-06T21:45:50.584Z,18.70
2022-09-06T21:50:55.595Z,18.50
2022-09-06T21:56:00.175Z,18.50
2022-09-06T22:01:04.907Z,18.30
2022-09-06T22:06:10.908Z,18.50
2022-09-06T22:11:16.368Z,18.50
2022-09-06T22:16:22.026Z,18.40
2022-09-06T22:21:27.185Z,18.30
2022-09-06T22:26:33.308Z,18.40
2022-09-06T22:31:38.000Z,18.40
2022-09-06T22:36:43.666Z,18.30
2022-09-06T22:41:46.922Z,18.30
2022-09-06T22:46:50.778Z,18.30
2022-09-06T22:51:55.332Z,18.20
2022-09-06T22:56:58.658Z,18.10
2022-09-06T23:02:02.444Z,17.90
2022-09-06T23:07:07.168Z,17.80
2022-09-06T23:12:10.228Z,17.60
2022-09-06T23:17:14.765Z,17.50
2022-09-06T23:22:19.267Z,17.40
2022-09-06T23:27:22.666Z,17.40
2022-09-06T23:32:26.222Z,17.20
2022-09-06T23:37:30.842Z,17.40
2022-09-06T23:42:34.612Z,17.10
2022-09-06T23:47:38.159Z,17.10
2022-09-06T23:52:42.745Z,17.10
2022-09-06T23:57:45.845Z,17.10
